Radium Springs, Georgia
Current Conditions -  °F | °C
As of 9:53 AM on Wednesday 22 Oct 2014 (Local Time) from KABY Reporting Station
Clear Clear  
Wind Chill: 61°   Ceiling: Unl
Heat Index: 61°   Visibility: 10mi
Dew Point: 50°   Wind: 6mph
Humidity: 67%   Direction: NA
Pressure: 30.11"   Gusts: NA
Location:  31.464°N, 83.985°W
Report Text: KABY 221353Z VRB05KT 10SM CLR 16/10 A3011 RMK AO2 SLP197 T01610100
Loading
Personal Weather Stations






























Interactive Weather Map
Tropical Storm Tracking
New forecast layout! Learn more

10-Day Weather Forecast

Advertisements
Track Severe Weather on mobile